Time;durP1;ratioP1;P1;durP2;ratioP2;P2;SDS_P1;SDS_P2;PMS_P1;PMS_P2;Temp;Humidity;BMP_temperature;BMP_pressure;BME280_temperature;BME280_humidity;BME280_pressure;Samples;Min_cycle;Max_cycle;Signal;HPM_P1;HPM_P2
2023/04/09 00:00:44;;;;;;;67.28;44.30;;;9.00;99.90;;;;;;5006322;28;20073;-59
2023/04/09 00:03:10;;;;;;;62.58;43.90;;;9.00;99.90;;;;;;5002999;28;20061;-59
2023/04/09 00:05:42;;;;;;;70.00;46.17;;;9.10;99.90;;;;;;5004638;28;20038;-57
2023/04/09 00:08:08;;;;;;;67.57;44.25;;;9.00;99.90;;;;;;5006477;28;20116;-59
2023/04/09 00:10:37;;;;;;;71.45;46.20;;;9.00;99.90;;;;;;5006891;28;20737;-56
2023/04/09 00:13:03;;;;;;;79.07;49.75;;;9.00;99.90;;;;;;5004972;28;20065;-60
2023/04/09 00:15:28;;;;;;;72.20;47.58;;;9.00;99.90;;;;;;4981345;28;20073;-60
2023/04/09 00:17:55;;;;;;;74.45;47.55;;;9.00;99.90;;;;;;4996518;28;20814;-59
2023/04/09 00:20:23;;;;;;;72.68;48.40;;;9.00;99.90;;;;;;4996624;28;20050;-60
2023/04/09 00:22:52;;;;;;;77.45;49.08;;;9.00;99.90;;;;;;5004010;28;20117;-61
2023/04/09 00:25:18;;;;;;;78.40;49.42;;;9.00;99.90;;;;;;5006464;28;20066;-57
2023/04/09 00:27:44;;;;;;;74.07;48.72;;;9.00;99.90;;;;;;5006505;28;20504;-57
2023/04/09 00:30:10;;;;;;;79.38;49.25;;;9.00;99.90;;;;;;5006459;28;20107;-60
2023/04/09 00:32:36;;;;;;;76.43;48.90;;;9.00;99.90;;;;;;5000662;28;20037;-60
2023/04/09 00:35:05;;;;;;;71.88;47.33;;;9.00;99.90;;;;;;5003452;28;20037;-59
2023/04/09 00:37:31;;;;;;;72.00;48.55;;;9.00;99.90;;;;;;5007900;28;20136;-60
2023/04/09 00:39:57;;;;;;;79.28;50.83;;;9.00;99.90;;;;;;5007752;28;20255;-60
2023/04/09 00:42:22;;;;;;;80.03;49.95;;;9.00;99.90;;;;;;5011288;28;20065;-57
2023/04/09 00:44:51;;;;;;;73.82;48.15;;;9.00;99.90;;;;;;5004721;28;20144;-57
2023/04/09 00:47:17;;;;;;;69.80;47.47;;;9.00;99.90;;;;;;5002586;28;20111;-57
2023/04/09 00:49:45;;;;;;;75.22;48.42;;;9.00;99.90;;;;;;5002162;28;20038;-61
2023/04/09 00:52:14;;;;;;;76.03;50.03;;;9.00;99.90;;;;;;5006744;28;20037;-59
2023/04/09 00:54:40;;;;;;;80.95;50.70;;;9.00;99.90;;;;;;4987589;28;20042;-57
2023/04/09 00:57:06;;;;;;;75.88;47.85;;;9.00;99.90;;;;;;5008645;28;20033;-60
2023/04/09 00:59:31;;;;;;;73.32;46.10;;;9.00;99.90;;;;;;5010514;28;20545;-58
2023/04/09 01:01:57;;;;;;;75.97;47.03;;;9.00;99.90;;;;;;5004059;28;20026;-58
2023/04/09 01:04:26;;;;;;;73.10;46.83;;;9.00;99.90;;;;;;5011041;28;20038;-61
2023/04/09 01:07:17;;;;;;;75.10;47.20;;;9.00;99.90;;;;;;5008509;28;20034;-60
2023/04/09 01:10:06;;;;;;;70.05;46.20;;;9.00;99.90;;;;;;5008303;28;20073;-58
2023/04/09 01:12:46;;;;;;;67.50;43.72;;;8.90;99.90;;;;;;5009953;28;20034;-57
2023/04/09 01:15:24;;;;;;;70.75;44.97;;;9.00;99.90;;;;;;5012429;28;20041;-60
2023/04/09 01:17:59;;;;;;;70.78;45.28;;;8.90;99.90;;;;;;5004187;28;20415;-61
2023/04/09 01:20:46;;;;;;;67.30;43.67;;;8.90;99.90;;;;;;5006225;28;20050;-61
2023/04/09 01:23:18;;;;;;;73.72;43.70;;;8.90;99.90;;;;;;4998329;28;20470;-60
2023/04/09 01:25:56;;;;;;;71.60;43.75;;;8.90;99.90;;;;;;5001060;28;20049;-60
2023/04/09 01:28:30;;;;;;;75.47;44.20;;;8.90;99.90;;;;;;5015202;28;20060;-60
2023/04/09 01:31:17;;;;;;;72.22;45.53;;;8.90;99.90;;;;;;4996035;28;20113;-58
2023/04/09 01:33:44;;;;;;;80.57;47.90;;;8.80;99.90;;;;;;5014923;28;20038;-60
2023/04/09 01:36:11;;;;;;;72.38;43.97;;;8.80;99.90;;;;;;5011812;28;20109;-57
2023/04/09 01:38:41;;;;;;;72.30;45.92;;;8.80;99.90;;;;;;5012899;28;20072;-59
2023/04/09 01:41:10;;;;;;;82.03;46.70;;;8.80;99.90;;;;;;5008000;28;20664;-59
2023/04/09 01:43:39;;;;;;;75.57;46.42;;;8.80;99.90;;;;;;5007906;28;20109;-59
2023/04/09 01:46:08;;;;;;;77.00;46.03;;;8.70;99.90;;;;;;5011026;28;20083;-57
2023/04/09 01:48:35;;;;;;;77.07;47.95;;;8.70;99.90;;;;;;5009019;28;20055;-56
2023/04/09 01:51:01;;;;;;;83.68;48.30;;;8.70;99.90;;;;;;5010096;28;20041;-55
2023/04/09 01:53:27;;;;;;;73.55;45.10;;;8.70;99.90;;;;;;5005159;28;20045;-57
2023/04/09 01:55:58;;;;;;;74.30;44.97;;;8.70;99.90;;;;;;5010350;28;20042;-57
2023/04/09 01:58:24;;;;;;;78.78;45.95;;;8.70;99.90;;;;;;5008103;28;20048;-58
2023/04/09 02:00:54;;;;;;;82.43;48.17;;;8.70;99.90;;;;;;5009331;28;20046;-61
2023/04/09 02:03:32;;;;;;;81.03;44.92;;;8.70;99.90;;;;;;5007883;28;20125;-58
2023/04/09 02:06:13;;;;;;;78.82;44.92;;;8.70;99.90;;;;;;5007043;28;20042;-59
2023/04/09 02:08:45;;;;;;;80.70;45.33;;;8.70;99.90;;;;;;5003748;28;20041;-60
2023/04/09 02:11:13;;;;;;;82.65;46.45;;;8.70;99.90;;;;;;5005583;28;20056;-56
2023/04/09 02:13:40;;;;;;;87.40;46.58;;;8.70;99.90;;;;;;5009832;28;20072;-60
2023/04/09 02:16:08;;;;;;;80.45;45.45;;;8.70;99.90;;;;;;5000319;28;20046;-60
2023/04/09 02:18:37;;;;;;;80.80;45.35;;;8.70;99.90;;;;;;5005907;28;20042;-59
2023/04/09 02:21:04;;;;;;;82.22;47.05;;;8.70;99.90;;;;;;5011383;28;20046;-59
2023/04/09 02:23:32;;;;;;;80.50;46.35;;;8.60;99.90;;;;;;5008924;28;20088;-56
2023/04/09 02:25:58;;;;;;;76.78;42.65;;;8.60;99.90;;;;;;5007793;28;20132;-58
2023/04/09 02:28:24;;;;;;;75.07;44.60;;;8.60;99.90;;;;;;4995711;28;20046;-58
2023/04/09 02:30:52;;;;;;;77.18;42.63;;;8.60;99.90;;;;;;4997329;28;20041;-58
2023/04/09 02:33:18;;;;;;;81.78;44.28;;;8.60;99.90;;;;;;5004029;28;20057;-55
2023/04/09 02:35:44;;;;;;;76.90;42.75;;;8.60;99.90;;;;;;5006814;28;20049;-57
2023/04/09 02:38:14;;;;;;;81.30;43.17;;;8.60;99.90;;;;;;5009590;28;20034;-54
2023/04/09 02:40:40;;;;;;;80.50;43.63;;;8.60;99.90;;;;;;5009659;28;20109;-59
2023/04/09 02:43:06;;;;;;;83.85;45.75;;;8.50;99.90;;;;;;5007076;28;20030;-59
2023/04/09 02:45:35;;;;;;;75.00;40.58;;;8.50;99.90;;;;;;5004571;28;20046;-61
2023/04/09 02:48:00;;;;;;;79.85;40.85;;;8.50;99.90;;;;;;5009243;28;20026;-61
2023/04/09 02:50:26;;;;;;;73.53;41.42;;;8.50;99.90;;;;;;5008299;28;20623;-57
2023/04/09 02:52:52;;;;;;;73.15;40.05;;;8.40;99.90;;;;;;5003603;28;20050;-59
2023/04/09 02:55:19;;;;;;;79.25;42.20;;;8.40;99.90;;;;;;4997862;28;20104;-57
2023/04/09 02:57:47;;;;;;;78.43;40.67;;;8.50;99.90;;;;;;5002491;28;20125;-59
2023/04/09 03:00:13;;;;;;;85.00;43.78;;;8.40;99.90;;;;;;5006280;28;20052;-61
2023/04/09 03:02:39;;;;;;;76.38;42.08;;;8.40;99.90;;;;;;5005605;28;20038;-59
2023/04/09 03:05:05;;;;;;;74.55;42.03;;;8.40;99.90;;;;;;5004708;28;20528;-57
2023/04/09 03:07:33;;;;;;;75.18;39.65;;;8.40;99.90;;;;;;5003598;28;20501;-59
2023/04/09 03:09:59;;;;;;;71.43;39.25;;;8.40;99.90;;;;;;5004729;28;20038;-59
2023/04/09 03:12:25;;;;;;;73.45;39.55;;;8.40;99.90;;;;;;5006181;28;20457;-61
2023/04/09 03:14:51;;;;;;;64.20;35.63;;;8.40;99.90;;;;;;5006112;28;20398;-59
2023/04/09 03:17:19;;;;;;;65.90;35.95;;;8.40;99.90;;;;;;5002357;28;20058;-59
2023/04/09 03:19:45;;;;;;;67.88;37.75;;;8.40;99.90;;;;;;5003406;28;20046;-60
2023/04/09 03:22:10;;;;;;;66.45;35.42;;;8.40;99.90;;;;;;5000744;28;20652;-59
2023/04/09 03:24:36;;;;;;;61.40;35.17;;;8.30;99.90;;;;;;4984509;28;20052;-59
2023/04/09 03:27:02;;;;;;;62.15;34.47;;;8.30;99.90;;;;;;5005039;28;20045;-60
2023/04/09 03:29:27;;;;;;;66.32;35.40;;;8.30;99.90;;;;;;5008043;28;20030;-60
2023/04/09 03:31:56;;;;;;;66.93;35.15;;;8.30;99.90;;;;;;5002808;28;20103;-59
2023/04/09 03:34:23;;;;;;;62.25;33.28;;;8.30;99.90;;;;;;5008699;28;20046;-61
2023/04/09 03:36:49;;;;;;;56.83;32.45;;;8.30;99.90;;;;;;5004927;28;20052;-59
2023/04/09 03:39:17;;;;;;;62.70;33.92;;;8.30;99.90;;;;;;4989824;28;20618;-58
2023/04/09 03:41:43;;;;;;;56.25;33.88;;;8.30;99.90;;;;;;5002951;28;20050;-59
2023/04/09 03:44:08;;;;;;;65.88;34.28;;;8.30;99.90;;;;;;5003927;28;20523;-60
2023/04/09 03:46:34;;;;;;;58.28;32.90;;;8.30;99.90;;;;;;5003754;28;20066;-59
2023/04/09 03:49:00;;;;;;;55.80;31.40;;;8.30;99.90;;;;;;5002464;28;20617;-60
2023/04/09 03:51:26;;;;;;;61.15;33.45;;;8.30;99.90;;;;;;5004153;28;20037;-59
2023/04/09 03:53:52;;;;;;;58.83;32.45;;;8.30;99.90;;;;;;4996190;28;20076;-59
2023/04/09 03:56:17;;;;;;;59.08;33.00;;;8.30;99.90;;;;;;5006929;28;20668;-60
2023/04/09 03:58:43;;;;;;;61.50;32.92;;;8.30;99.90;;;;;;5007705;28;20026;-60
2023/04/09 04:01:09;;;;;;;53.83;32.67;;;8.30;99.90;;;;;;5005834;28;20501;-59
2023/04/09 04:03:35;;;;;;;61.95;32.92;;;8.30;99.90;;;;;;5007751;28;20030;-60
2023/04/09 04:06:06;;;;;;;58.75;33.28;;;8.30;99.90;;;;;;5004288;28;20095;-59
2023/04/09 04:08:32;;;;;;;54.28;30.85;;;8.20;99.90;;;;;;5006333;28;20030;-60
2023/04/09 04:11:04;;;;;;;55.97;32.83;;;8.30;99.90;;;;;;5006463;28;20854;-60
2023/04/09 04:13:30;;;;;;;56.92;32.45;;;8.30;99.90;;;;;;5004472;28;20641;-60
2023/04/09 04:15:56;;;;;;;54.63;31.33;;;8.30;99.90;;;;;;5007861;28;20033;-58
2023/04/09 04:18:21;;;;;;;58.70;31.27;;;8.30;99.90;;;;;;5003024;28;20041;-58
2023/04/09 04:20:47;;;;;;;55.45;31.05;;;8.30;99.90;;;;;;5003916;28;20045;-57
2023/04/09 04:23:13;;;;;;;53.72;29.92;;;8.20;99.90;;;;;;5002782;28;20044;-58
2023/04/09 04:25:42;;;;;;;52.42;29.25;;;8.20;99.90;;;;;;5004634;28;20042;-57
2023/04/09 04:28:08;;;;;;;49.95;29.20;;;8.30;99.90;;;;;;5002000;28;20107;-57
2023/04/09 04:30:34;;;;;;;47.45;27.08;;;8.30;99.90;;;;;;5004301;28;21076;-58
2023/04/09 04:32:59;;;;;;;48.17;28.15;;;8.30;99.90;;;;;;5001527;28;20034;-58
2023/04/09 04:35:25;;;;;;;47.95;28.30;;;8.30;99.90;;;;;;5001860;28;20405;-58
2023/04/09 04:37:54;;;;;;;45.33;26.23;;;8.30;99.90;;;;;;5007317;28;20397;-56
2023/04/09 04:40:19;;;;;;;44.20;26.83;;;8.30;99.90;;;;;;5007195;28;20042;-58
2023/04/09 04:42:45;;;;;;;43.67;26.13;;;8.30;99.90;;;;;;5008681;28;20046;-57
2023/04/09 04:45:11;;;;;;;45.53;26.38;;;8.30;99.90;;;;;;5000691;28;20053;-58
2023/04/09 04:47:37;;;;;;;44.22;26.05;;;8.30;99.90;;;;;;5005786;28;20177;-56
2023/04/09 04:50:02;;;;;;;47.78;27.08;;;8.30;99.90;;;;;;5000761;28;20045;-58
2023/04/09 04:52:28;;;;;;;44.58;25.63;;;8.30;99.90;;;;;;4999133;28;20169;-58
2023/04/09 04:54:54;;;;;;;44.13;25.63;;;8.30;99.90;;;;;;5004148;28;20611;-58
2023/04/09 04:57:19;;;;;;;48.95;27.67;;;8.30;99.90;;;;;;5003128;28;20046;-58
2023/04/09 04:59:45;;;;;;;47.95;28.88;;;8.30;99.90;;;;;;5004728;28;20156;-57
2023/04/09 05:02:11;;;;;;;51.80;30.60;;;8.30;99.90;;;;;;5002314;28;20096;-57
2023/04/09 05:04:37;;;;;;;55.30;30.50;;;8.30;99.90;;;;;;5005455;28;20045;-57
2023/04/09 05:07:05;;;;;;;58.38;32.60;;;8.30;99.90;;;;;;5006525;28;20026;-58
2023/04/09 05:09:31;;;;;;;56.70;32.67;;;8.30;99.90;;;;;;5007295;28;20464;-58
2023/04/09 05:11:57;;;;;;;57.05;33.05;;;8.20;99.90;;;;;;5003098;28;20117;-58
2023/04/09 05:14:24;;;;;;;61.15;32.28;;;8.10;99.90;;;;;;5006456;28;20125;-58
2023/04/09 05:16:49;;;;;;;58.28;32.25;;;8.10;99.90;;;;;;5005244;28;20148;-58
2023/04/09 05:19:18;;;;;;;62.00;34.10;;;8.10;99.90;;;;;;5006453;28;20525;-58
2023/04/09 05:21:47;;;;;;;58.40;33.85;;;8.10;99.90;;;;;;5000115;28;20160;-58
2023/04/09 05:24:12;;;;;;;60.53;34.60;;;8.00;99.90;;;;;;5010680;28;20116;-58
2023/04/09 05:26:38;;;;;;;58.85;33.67;;;8.00;99.90;;;;;;5001992;28;20792;-58
2023/04/09 05:29:04;;;;;;;58.33;33.90;;;8.00;99.90;;;;;;5003360;28;20026;-58
2023/04/09 05:31:30;;;;;;;58.13;33.67;;;8.00;99.90;;;;;;5003921;28;20125;-57
2023/04/09 05:33:55;;;;;;;53.90;31.83;;;8.00;99.90;;;;;;5006313;28;20401;-58
2023/04/09 05:36:21;;;;;;;64.43;34.67;;;8.00;99.90;;;;;;5000423;28;20049;-57
2023/04/09 05:38:47;;;;;;;58.72;31.80;;;8.00;99.90;;;;;;5006360;28;20807;-58
2023/04/09 05:41:16;;;;;;;55.08;33.13;;;8.00;99.90;;;;;;5002363;28;20031;-58
2023/04/09 05:43:42;;;;;;;60.58;33.90;;;8.00;99.90;;;;;;5004145;28;20085;-58
2023/04/09 05:46:07;;;;;;;58.67;34.13;;;8.00;99.90;;;;;;5003342;28;20133;-56
2023/04/09 05:48:36;;;;;;;56.05;31.98;;;8.00;99.90;;;;;;5004620;28;20039;-57
2023/04/09 05:51:02;;;;;;;58.85;34.22;;;8.00;99.90;;;;;;5002345;28;20116;-57
2023/04/09 05:53:28;;;;;;;62.45;35.58;;;8.00;99.90;;;;;;4982647;28;20516;-56
2023/04/09 05:55:54;;;;;;;55.75;32.25;;;8.00;99.90;;;;;;5009614;28;20046;-58
2023/04/09 05:58:22;;;;;;;59.05;31.98;;;8.00;99.90;;;;;;4996656;28;20061;-57
2023/04/09 06:00:50;;;;;;;53.85;32.88;;;8.10;99.90;;;;;;4995658;28;20030;-57
2023/04/09 06:03:16;;;;;;;56.95;33.15;;;8.10;99.90;;;;;;5001555;28;20485;-58
2023/04/09 06:05:44;;;;;;;53.80;32.28;;;8.10;99.90;;;;;;5006885;28;20087;-58
2023/04/09 06:08:11;;;;;;;56.42;30.60;;;8.10;99.90;;;;;;5004643;28;20045;-58
2023/04/09 06:10:37;;;;;;;45.80;28.23;;;8.10;99.90;;;;;;5002830;28;20537;-58
2023/04/09 06:13:02;;;;;;;47.92;29.58;;;8.10;99.90;;;;;;5005134;28;20034;-57
2023/04/09 06:15:28;;;;;;;52.42;30.73;;;8.20;99.90;;;;;;4999209;28;20104;-58
2023/04/09 06:17:54;;;;;;;54.42;32.55;;;8.20;99.90;;;;;;5004659;28;20096;-57
2023/04/09 06:20:23;;;;;;;52.33;31.08;;;8.20;99.90;;;;;;5000567;28;20093;-57
2023/04/09 06:22:48;;;;;;;51.38;29.73;;;8.20;99.90;;;;;;5003180;28;20038;-58
2023/04/09 06:25:14;;;;;;;48.45;27.55;;;8.20;99.90;;;;;;5004440;28;20432;-58
2023/04/09 06:27:40;;;;;;;48.33;28.45;;;8.30;99.90;;;;;;5008177;28;20101;-58
2023/04/09 06:30:06;;;;;;;50.17;31.27;;;8.20;99.90;;;;;;5002232;28;20034;-58
2023/04/09 06:32:32;;;;;;;46.90;30.35;;;8.30;99.90;;;;;;4999460;28;20046;-58
2023/04/09 06:34:58;;;;;;;45.10;27.10;;;8.30;99.90;;;;;;4999867;28;20370;-58
2023/04/09 06:37:24;;;;;;;45.45;29.23;;;8.20;99.90;;;;;;4990161;28;20050;-58
2023/04/09 06:39:49;;;;;;;46.00;26.90;;;8.20;99.90;;;;;;4997884;28;20046;-58
2023/04/09 06:42:15;;;;;;;42.10;25.90;;;8.20;99.90;;;;;;5003201;28;20053;-57
2023/04/09 06:44:41;;;;;;;41.85;27.70;;;8.20;99.90;;;;;;4996551;28;20050;-56
2023/04/09 06:47:07;;;;;;;38.63;25.40;;;8.20;99.90;;;;;;5001700;28;20046;-58
2023/04/09 06:49:33;;;;;;;39.13;26.20;;;8.20;99.90;;;;;;4990947;28;20042;-57
2023/04/09 06:52:02;;;;;;;41.15;26.48;;;8.20;99.90;;;;;;4997744;28;20037;-58
2023/04/09 06:54:28;;;;;;;40.33;26.65;;;8.20;99.90;;;;;;5006241;28;20561;-58
2023/04/09 06:56:54;;;;;;;45.38;25.85;;;8.20;99.90;;;;;;5002954;28;20045;-57
2023/04/09 06:59:19;;;;;;;39.45;25.60;;;8.20;99.90;;;;;;5003065;28;20053;-56
2023/04/09 07:01:46;;;;;;;42.55;26.98;;;8.20;99.90;;;;;;5002795;28;20052;-58
2023/04/09 07:04:12;;;;;;;45.30;29.25;;;8.30;99.90;;;;;;5001794;28;20494;-56
2023/04/09 07:06:40;;;;;;;41.97;26.10;;;8.30;99.90;;;;;;5001384;28;20037;-58
2023/04/09 07:09:06;;;;;;;44.90;28.67;;;8.20;99.90;;;;;;5006606;28;20113;-57
2023/04/09 07:11:32;;;;;;;43.95;26.27;;;8.30;99.90;;;;;;5003204;28;20120;-57
2023/04/09 07:13:58;;;;;;;41.67;26.98;;;8.30;99.90;;;;;;5004410;28;20042;-58
2023/04/09 07:16:24;;;;;;;41.15;25.75;;;8.30;99.90;;;;;;5002063;28;20044;-58
2023/04/09 07:18:49;;;;;;;41.63;26.83;;;8.30;99.90;;;;;;4984814;28;20041;-58
2023/04/09 07:21:15;;;;;;;40.80;26.60;;;8.30;99.90;;;;;;5002611;28;20490;-58
2023/04/09 07:23:41;;;;;;;43.45;29.27;;;8.30;99.90;;;;;;4999245;28;20053;-57
2023/04/09 07:26:07;;;;;;;44.70;28.05;;;8.30;99.90;;;;;;5004725;28;20433;-58
2023/04/09 07:28:33;;;;;;;42.17;26.85;;;8.30;99.90;;;;;;5005789;28;20048;-57
2023/04/09 07:31:01;;;;;;;44.83;29.13;;;8.30;99.90;;;;;;4998664;28;20052;-57
2023/04/09 07:33:28;;;;;;;47.65;28.80;;;8.30;99.90;;;;;;5004844;28;20747;-57
2023/04/09 07:35:56;;;;;;;44.92;29.80;;;8.30;99.90;;;;;;4998317;28;20046;-58
2023/04/09 07:38:22;;;;;;;41.65;27.52;;;8.30;99.90;;;;;;5005625;28;20675;-58
2023/04/09 07:40:48;;;;;;;46.55;28.60;;;8.40;99.90;;;;;;5002387;28;20483;-55
2023/04/09 07:43:14;;;;;;;44.25;27.92;;;8.40;99.90;;;;;;4999834;28;20033;-56
2023/04/09 07:45:40;;;;;;;44.67;28.23;;;8.40;99.90;;;;;;5005592;28;20049;-56
2023/04/09 07:48:08;;;;;;;51.05;30.63;;;8.40;99.90;;;;;;4995771;28;20042;-58
2023/04/09 07:50:33;;;;;;;49.58;30.00;;;8.40;99.90;;;;;;5011841;28;20496;-58
2023/04/09 07:52:59;;;;;;;46.83;28.67;;;8.40;99.90;;;;;;5001663;28;20096;-57
2023/04/09 07:55:25;;;;;;;45.53;28.63;;;8.40;99.90;;;;;;5003484;28;20096;-56
2023/04/09 07:57:51;;;;;;;49.92;29.73;;;8.40;99.90;;;;;;5003776;28;20053;-56
2023/04/09 08:00:22;;;;;;;48.35;28.85;;;8.50;99.90;;;;;;5004122;28;20134;-57
2023/04/09 08:02:48;;;;;;;45.58;29.05;;;8.50;99.90;;;;;;5002741;28;20042;-54
2023/04/09 08:05:16;;;;;;;49.75;29.15;;;8.50;99.90;;;;;;4985405;28;20108;-57
2023/04/09 08:07:45;;;;;;;45.95;28.88;;;8.60;99.90;;;;;;5003359;28;20046;-57
2023/04/09 08:10:13;;;;;;;44.47;28.35;;;8.60;99.90;;;;;;5002861;28;20065;-57
2023/04/09 08:12:40;;;;;;;44.72;28.20;;;8.60;99.90;;;;;;4997725;28;20038;-58
2023/04/09 08:15:06;;;;;;;46.53;28.38;;;8.60;99.90;;;;;;4998719;28;20135;-58
2023/04/09 08:17:32;;;;;;;39.63;25.08;;;8.60;99.90;;;;;;5002504;28;20046;-57
2023/04/09 08:19:58;;;;;;;43.90;27.08;;;8.70;99.90;;;;;;5001670;28;20033;-58
2023/04/09 08:22:24;;;;;;;45.38;28.92;;;8.70;99.90;;;;;;5001843;28;20093;-57
2023/04/09 08:24:56;;;;;;;43.38;28.30;;;8.70;99.90;;;;;;5002440;28;20100;-56
2023/04/09 08:27:22;;;;;;;42.08;27.17;;;8.60;99.90;;;;;;4994150;28;20042;-57
2023/04/09 08:29:48;;;;;;;46.92;27.77;;;8.70;99.90;;;;;;5003559;28;20108;-58
2023/04/09 08:32:14;;;;;;;43.40;27.65;;;8.80;99.90;;;;;;5003754;28;20129;-58
2023/04/09 08:34:43;;;;;;;46.03;28.70;;;8.80;99.90;;;;;;5003383;28;20038;-56
2023/04/09 08:37:08;;;;;;;40.35;24.63;;;8.80;99.90;;;;;;4999367;28;20092;-56
2023/04/09 08:39:35;;;;;;;41.88;27.30;;;8.80;99.90;;;;;;4998741;28;20054;-57
2023/04/09 08:42:04;;;;;;;42.97;27.15;;;8.90;99.90;;;;;;5004389;28;20116;-57
2023/04/09 08:44:30;;;;;;;39.40;26.33;;;8.90;99.90;;;;;;5003431;28;20054;-58
2023/04/09 08:46:56;;;;;;;45.38;28.38;;;8.90;99.90;;;;;;5001854;28;20053;-58
2023/04/09 08:49:22;;;;;;;46.55;27.75;;;8.90;99.90;;;;;;5000431;28;20057;-57
2023/04/09 08:51:48;;;;;;;39.60;24.65;;;8.90;99.90;;;;;;5002711;28;20045;-57
2023/04/09 08:54:16;;;;;;;43.67;27.85;;;9.00;99.90;;;;;;4998115;28;20052;-57
2023/04/09 08:56:44;;;;;;;40.63;27.02;;;8.90;99.90;;;;;;4997646;28;20050;-56
2023/04/09 08:59:13;;;;;;;42.30;27.63;;;8.90;99.90;;;;;;4991384;28;20052;-58
2023/04/09 09:01:39;;;;;;;42.20;26.50;;;9.00;99.90;;;;;;4990599;28;20126;-56
2023/04/09 09:04:07;;;;;;;44.83;28.77;;;9.00;99.90;;;;;;4986944;28;20054;-58
2023/04/09 09:06:36;;;;;;;37.00;25.58;;;9.00;99.90;;;;;;4983125;28;20065;-58
2023/04/09 09:09:15;;;;;;;40.97;26.90;;;9.10;99.90;;;;;;4986309;28;20152;-58
2023/04/09 09:11:44;;;;;;;40.47;25.80;;;9.10;99.90;;;;;;4985551;28;20046;-57
2023/04/09 09:14:13;;;;;;;43.40;25.70;;;9.10;99.90;;;;;;4986840;28;20124;-58
2023/04/09 09:16:46;;;;;;;36.83;25.75;;;9.20;99.90;;;;;;4986431;28;20044;-58
2023/04/09 09:19:24;;;;;;;39.85;27.83;;;9.20;99.90;;;;;;4985151;28;20054;-57
2023/04/09 09:21:57;;;;;;;42.13;26.00;;;9.20;99.90;;;;;;4988293;28;20509;-58
2023/04/09 09:24:23;;;;;;;39.83;25.43;;;9.20;99.90;;;;;;4988319;28;22318;-57
2023/04/09 09:26:49;;;;;;;40.45;27.90;;;9.20;99.90;;;;;;4989429;28;20457;-58
2023/04/09 09:29:18;;;;;;;41.58;27.95;;;9.20;99.90;;;;;;4990037;28;20045;-56
2023/04/09 09:31:52;;;;;;;41.17;26.83;;;9.20;99.90;;;;;;4990527;28;20184;-59
2023/04/09 09:34:19;;;;;;;46.78;27.83;;;9.20;99.90;;;;;;4990413;28;20064;-58
2023/04/09 09:36:45;;;;;;;40.70;27.65;;;9.20;99.90;;;;;;4992790;28;20498;-57
2023/04/09 09:39:16;;;;;;;43.55;28.58;;;9.20;99.90;;;;;;4989032;28;20072;-58
2023/04/09 09:41:43;;;;;;;45.58;28.60;;;9.20;99.90;;;;;;4990570;28;21985;-58
2023/04/09 09:44:11;;;;;;;39.92;25.95;;;9.30;99.90;;;;;;4987683;28;20433;-58
2023/04/09 09:46:41;;;;;;;40.88;26.73;;;9.20;99.90;;;;;;4991329;28;20038;-58
2023/04/09 09:49:08;;;;;;;39.22;27.00;;;9.20;99.90;;;;;;4969015;28;20033;-58
2023/04/09 09:51:39;;;;;;;43.83;27.50;;;9.30;99.90;;;;;;4990978;28;20401;-58
2023/04/09 09:54:08;;;;;;;41.85;28.10;;;9.30;99.90;;;;;;4992036;28;20460;-59
2023/04/09 09:56:42;;;;;;;41.50;26.73;;;9.40;99.90;;;;;;4991312;28;20104;-58
2023/04/09 09:59:22;;;;;;;41.55;26.15;;;9.40;99.90;;;;;;4988809;28;20603;-58
2023/04/09 10:01:58;;;;;;;42.38;28.17;;;9.50;99.90;;;;;;4992122;28;20141;-58
2023/04/09 10:04:28;;;;;;;40.75;26.17;;;9.50;99.90;;;;;;4992989;28;20049;-59
2023/04/09 10:06:55;;;;;;;43.75;27.00;;;9.50;99.90;;;;;;4990055;28;20129;-59
2023/04/09 10:09:25;;;;;;;40.03;26.52;;;9.50;99.90;;;;;;4987005;28;20862;-58
2023/04/09 10:11:51;;;;;;;41.88;26.23;;;9.60;99.90;;;;;;4988802;28;20041;-58
2023/04/09 10:14:17;;;;;;;39.08;25.25;;;9.70;99.90;;;;;;4975193;28;20058;-58
2023/04/09 10:16:46;;;;;;;46.33;28.92;;;9.70;99.90;;;;;;4988850;28;20106;-58
2023/04/09 10:19:13;;;;;;;41.10;27.35;;;9.80;99.90;;;;;;4993270;28;20085;-57
2023/04/09 10:22:01;;;;;;;43.20;28.10;;;9.90;99.90;;;;;;4995519;28;20057;-59
2023/04/09 10:24:26;;;;;;;41.63;28.33;;;9.90;99.90;;;;;;4996996;28;20073;-58
2023/04/09 10:27:07;;;;;;;49.88;34.25;;;9.90;99.90;;;;;;5004263;28;20033;-57
2023/04/09 10:29:33;;;;;;;47.50;29.48;;;10.00;99.90;;;;;;4994603;28;20117;-57
2023/04/09 10:32:06;;;;;;;41.65;27.73;;;10.00;99.90;;;;;;4997211;28;20199;-58
2023/04/09 10:34:38;;;;;;;45.88;28.35;;;10.10;99.90;;;;;;5001055;28;20085;-57
2023/04/09 10:37:15;;;;;;;41.13;27.58;;;10.20;99.90;;;;;;5000413;28;20049;-60
2023/04/09 10:39:46;;;;;;;41.05;26.55;;;10.30;99.90;;;;;;5007289;28;20420;-60
2023/04/09 10:42:20;;;;;;;44.53;28.88;;;10.40;99.90;;;;;;5003757;28;20038;-59
2023/04/09 10:45:02;;;;;;;44.88;29.13;;;10.50;99.90;;;;;;5001719;28;20046;-60
2023/04/09 10:47:35;;;;;;;48.63;30.88;;;10.60;99.90;;;;;;5004579;28;20104;-60
2023/04/09 10:50:18;;;;;;;47.08;29.00;;;10.70;99.90;;;;;;5003121;28;20087;-60
2023/04/09 10:52:44;;;;;;;41.35;27.30;;;10.70;99.90;;;;;;4998012;28;20612;-60
2023/04/09 10:55:33;;;;;;;38.13;25.98;;;10.70;99.90;;;;;;5004814;28;20050;-60
2023/04/09 10:58:10;;;;;;;47.63;29.02;;;10.80;99.90;;;;;;5005435;28;20077;-60
2023/04/09 11:00:40;;;;;;;48.17;28.40;;;10.80;99.90;;;;;;4997658;28;20050;-58
2023/04/09 11:03:20;;;;;;;42.30;27.88;;;10.80;99.90;;;;;;5003036;28;20100;-60
2023/04/09 11:06:09;;;;;;;42.85;28.60;;;10.80;99.90;;;;;;5006773;28;20042;-59
2023/04/09 11:08:36;;;;;;;39.88;27.15;;;10.90;99.90;;;;;;5002663;28;20038;-60
2023/04/09 11:11:03;;;;;;;43.15;29.10;;;11.10;99.90;;;;;;4987215;28;20034;-58
2023/04/09 11:13:30;;;;;;;45.70;30.33;;;11.20;99.90;;;;;;5000798;28;20054;-60
2023/04/09 11:15:56;;;;;;;56.63;33.83;;;11.30;99.90;;;;;;5007357;28;20170;-59
2023/04/09 11:18:29;;;;;;;38.92;26.52;;;11.50;99.90;;;;;;5000237;28;20060;-60
2023/04/09 11:20:56;;;;;;;41.45;26.80;;;11.60;99.90;;;;;;5003735;28;20041;-58
2023/04/09 11:23:23;;;;;;;41.88;28.08;;;11.80;99.90;;;;;;5004240;28;20053;-60
2023/04/09 11:25:50;;;;;;;41.17;28.90;;;12.10;99.90;;;;;;5003274;28;20038;-59
2023/04/09 11:28:17;;;;;;;38.08;26.85;;;12.30;99.90;;;;;;4999891;28;20077;-59
2023/04/09 11:30:43;;;;;;;36.95;25.52;;;12.50;99.90;;;;;;4998044;28;20088;-60
2023/04/09 11:33:08;;;;;;;37.67;27.35;;;12.70;99.90;;;;;;4995548;28;20562;-60
2023/04/09 11:35:35;;;;;;;39.60;27.00;;;13.00;99.90;;;;;;4995755;28;20095;-60
2023/04/09 11:38:06;;;;;;;37.30;25.05;;;13.00;99.90;;;;;;5002308;28;20042;-59
2023/04/09 11:40:32;;;;;;;37.95;26.33;;;13.10;99.90;;;;;;4997228;28;20042;-60
2023/04/09 11:42:58;;;;;;;38.13;24.73;;;13.20;99.90;;;;;;4998723;28;20121;-62
2023/04/09 11:45:26;;;;;;;33.17;23.40;;;13.20;99.90;;;;;;5000074;28;20678;-60
2023/04/09 11:47:52;;;;;;;35.90;26.08;;;13.10;99.90;;;;;;4998018;28;20905;-60
2023/04/09 11:50:18;;;;;;;36.08;25.50;;;13.20;99.90;;;;;;5002289;28;20049;-60
2023/04/09 11:52:45;;;;;;;36.53;26.02;;;13.10;99.90;;;;;;4999508;28;20053;-58
2023/04/09 11:55:11;;;;;;;35.67;25.45;;;13.10;99.90;;;;;;4995231;28;20534;-59
2023/04/09 11:57:41;;;;;;;34.90;25.08;;;13.10;99.90;;;;;;4997785;28;20076;-62
2023/04/09 12:00:13;;;;;;;33.78;24.05;;;13.40;99.90;;;;;;5000594;28;20736;-60
2023/04/09 12:02:45;;;;;;;33.50;24.42;;;13.70;99.90;;;;;;4983303;28;20093;-59
2023/04/09 12:05:19;;;;;;;43.70;31.45;;;13.70;99.90;;;;;;4995536;28;20613;-60
2023/04/09 12:07:45;;;;;;;32.33;23.52;;;14.00;99.90;;;;;;5000323;28;20207;-62
2023/04/09 12:10:11;;;;;;;30.00;23.52;;;14.30;99.90;;;;;;4984280;28;20092;-60
2023/04/09 12:12:44;;;;;;;30.88;24.55;;;14.40;99.90;;;;;;4999762;28;20042;-63
2023/04/09 12:15:21;;;;;;;32.78;23.48;;;14.60;99.90;;;;;;4996456;28;20488;-61
2023/04/09 12:17:52;;;;;;;31.70;22.65;;;14.70;99.90;;;;;;4992895;28;20160;-60
2023/04/09 12:20:33;;;;;;;30.10;21.30;;;14.80;99.90;;;;;;5001472;28;20073;-60
2023/04/09 12:23:01;;;;;;;31.30;23.00;;;14.90;99.90;;;;;;5000301;28;20045;-59
2023/04/09 12:25:27;;;;;;;28.08;21.30;;;15.00;99.90;;;;;;4995192;28;20392;-59
2023/04/09 12:27:54;;;;;;;30.30;23.42;;;14.90;99.90;;;;;;4993622;28;20609;-60
2023/04/09 12:30:23;;;;;;;27.77;21.05;;;14.80;99.90;;;;;;4997899;28;20065;-60
2023/04/09 12:32:50;;;;;;;26.85;20.75;;;15.00;99.90;;;;;;5001830;28;20034;-60
2023/04/09 12:35:16;;;;;;;26.17;19.90;;;15.10;99.90;;;;;;5000219;28;20042;-61
2023/04/09 12:37:42;;;;;;;26.75;20.80;;;15.30;99.90;;;;;;5001038;28;20069;-60
2023/04/09 12:40:09;;;;;;;29.80;21.73;;;15.40;99.90;;;;;;5005682;28;20106;-60